Terminal Aerodrome Forecast
Issued by NWS

Current Version | Previous Version | Text Only | Print | Product List | Glossary On
Versions: 1 2 3 4 5 6 7 8 9 10 11 12 13 14 15 16 17 18 19 20 21 22 23 24 25 26 27 28 29 30 31 32 33 34 35
227
FTUS42 KGSP 221740
TAFHKY
TAF
KHKY 221740Z 2218/2318 24004KT P6SM VCSH BKN035
      TEMPO 2218/2220 VRB10KT 5SM TSRA BKN020CB OVC045
     FM230300 00000KT 5SM BR VCSH OVC080
     FM230800 33004KT 3SM -SHRA BR OVC006
     FM231200 02003KT 3SM SHRA BR OVC006=

USA.gov is the U.S. government's official web portal to all federal, state and local government web resources and services.